Time;durP1;ratioP1;P1;durP2;ratioP2;P2;SDS_P1;SDS_P2;PMS_P1;PMS_P2;Temp;Humidity;BMP_temperature;BMP_pressure;BME280_temperature;BME280_humidity;BME280_pressure;Samples;Min_cycle;Max_cycle;Signal;HPM_P1;HPM_P2
2024/02/09 00:00:29;;;;;;;1.70;1.30;;;3.20;99.90;;;;;;4966839;28;20023;-66
2024/02/09 00:02:55;;;;;;;1.92;1.20;;;3.10;99.90;;;;;;4967065;28;20483;-66
2024/02/09 00:05:21;;;;;;;2.67;1.40;;;3.00;99.90;;;;;;4966647;28;20031;-66
2024/02/09 00:07:50;;;;;;;1.60;1.08;;;3.10;99.90;;;;;;4966755;28;20509;-66
2024/02/09 00:10:20;;;;;;;1.08;0.98;;;3.10;99.90;;;;;;4966329;28;20435;-66
2024/02/09 00:12:48;;;;;;;1.88;1.50;;;3.10;99.90;;;;;;4965491;28;20034;-66
2024/02/09 00:15:18;;;;;;;1.77;1.35;;;3.00;99.90;;;;;;4964131;28;20101;-66
2024/02/09 00:17:44;;;;;;;2.33;1.55;;;3.00;99.90;;;;;;4965077;28;20034;-66
2024/02/09 00:20:11;;;;;;;2.42;1.75;;;3.00;99.90;;;;;;4967005;28;20078;-66
2024/02/09 00:22:37;;;;;;;1.65;1.27;;;3.00;99.90;;;;;;4966473;28;20681;-66
2024/02/09 00:25:10;;;;;;;2.08;1.48;;;3.00;99.90;;;;;;4965514;28;20107;-66
2024/02/09 00:27:36;;;;;;;1.73;1.45;;;3.00;99.90;;;;;;4965694;28;20062;-66
2024/02/09 00:30:06;;;;;;;2.20;1.50;;;3.00;99.90;;;;;;4965041;28;20719;-66
2024/02/09 00:32:33;;;;;;;2.05;1.48;;;2.90;99.90;;;;;;4965104;28;20035;-66
2024/02/09 00:34:59;;;;;;;2.28;1.38;;;3.00;99.90;;;;;;4965893;28;20038;-66
2024/02/09 00:37:26;;;;;;;2.13;1.55;;;3.00;99.90;;;;;;4966514;28;20042;-69
2024/02/09 00:39:52;;;;;;;2.47;1.52;;;3.00;99.90;;;;;;4966855;28;20486;-69
2024/02/09 00:42:18;;;;;;;2.15;1.23;;;3.00;99.90;;;;;;4966942;28;20600;-69
2024/02/09 00:44:44;;;;;;;3.08;1.30;;;3.00;99.90;;;;;;4966301;28;20034;-69
2024/02/09 00:47:10;;;;;;;1.92;1.30;;;3.10;99.90;;;;;;4966549;28;20109;-70
2024/02/09 00:49:37;;;;;;;2.40;1.38;;;3.00;99.90;;;;;;4966733;28;20439;-69
2024/02/09 00:52:03;;;;;;;1.90;1.60;;;3.10;99.90;;;;;;4965243;28;20069;-69
2024/02/09 00:54:29;;;;;;;1.92;1.33;;;3.20;99.90;;;;;;4966191;28;20213;-70
2024/02/09 00:56:56;;;;;;;1.95;1.50;;;3.10;99.90;;;;;;4966460;28;20059;-70
2024/02/09 00:59:23;;;;;;;2.25;1.60;;;3.10;99.90;;;;;;4966346;28;20031;-69
2024/02/09 01:01:53;;;;;;;1.95;1.52;;;3.00;99.90;;;;;;4965596;28;20072;-70
2024/02/09 01:04:20;;;;;;;3.58;1.33;;;3.00;99.90;;;;;;4966118;28;20137;-70
2024/02/09 01:06:48;;;;;;;1.30;1.20;;;3.10;99.90;;;;;;4965890;28;20031;-69
2024/02/09 01:09:15;;;;;;;2.03;1.70;;;3.00;99.90;;;;;;4965839;28;20058;-70
2024/02/09 01:11:41;;;;;;;1.85;1.48;;;3.10;99.90;;;;;;4965608;28;20035;-70
2024/02/09 02:44:46;;;;;;;1.98;1.50;;;2.90;99.90;;;;;;4964455;28;20113;-68
2024/02/09 02:47:13;;;;;;;2.17;1.75;;;2.90;99.90;;;;;;4964705;28;20081;-68
2024/02/09 03:06:06;;;;;;;3.38;1.73;;;2.70;99.90;;;;;;4964814;28;20825;-69
2024/02/09 03:08:31;;;;;;;2.70;1.67;;;2.80;99.90;;;;;;4966089;28;20027;-69
2024/02/09 03:10:57;;;;;;;2.40;1.50;;;2.70;99.90;;;;;;4968049;28;20557;-69
2024/02/09 03:13:23;;;;;;;1.73;1.48;;;2.70;99.90;;;;;;4968162;28;20796;-69
2024/02/09 03:15:52;;;;;;;3.60;1.80;;;2.80;99.90;;;;;;4967845;28;20502;-68
2024/02/09 03:18:21;;;;;;;2.80;1.40;;;2.80;99.90;;;;;;4967288;28;20034;-69
2024/02/09 03:20:47;;;;;;;1.88;1.67;;;2.80;99.90;;;;;;4966902;28;20026;-69
2024/02/09 03:23:17;;;;;;;2.00;1.30;;;2.80;99.90;;;;;;4968061;28;20030;-69
2024/02/09 03:25:43;;;;;;;1.50;1.35;;;2.80;99.90;;;;;;4967988;28;20031;-68
2024/02/09 03:28:09;;;;;;;2.67;1.45;;;2.90;99.90;;;;;;4967471;28;20545;-69
2024/02/09 03:30:34;;;;;;;1.90;1.60;;;2.90;99.90;;;;;;4967744;28;20042;-69
2024/02/09 03:33:03;;;;;;;2.50;1.73;;;2.80;99.90;;;;;;4968157;28;20450;-69
2024/02/09 03:35:31;;;;;;;1.83;1.40;;;2.90;99.90;;;;;;4965460;28;20566;-68
2024/02/09 03:37:58;;;;;;;3.92;1.40;;;3.00;99.90;;;;;;4965835;28;20058;-69
2024/02/09 03:40:24;;;;;;;1.45;1.20;;;2.90;99.90;;;;;;4967363;28;20049;-69
2024/02/09 03:42:49;;;;;;;3.30;1.33;;;2.80;99.90;;;;;;4967691;28;20490;-68
2024/02/09 03:45:15;;;;;;;1.55;1.33;;;2.70;99.90;;;;;;4967979;28;20046;-68
2024/02/09 03:47:41;;;;;;;3.08;1.50;;;2.80;99.90;;;;;;4967800;28;20280;-69
2024/02/09 03:50:07;;;;;;;1.77;1.50;;;3.00;99.90;;;;;;4967918;28;20114;-69
2024/02/09 03:52:33;;;;;;;2.63;1.77;;;3.00;99.90;;;;;;4967211;28;20031;-69
2024/02/09 03:55:00;;;;;;;1.25;1.15;;;3.10;99.90;;;;;;4967618;28;20042;-69
2024/02/09 03:57:27;;;;;;;2.50;1.95;;;3.00;99.90;;;;;;4967722;28;20027;-69
2024/02/09 03:59:54;;;;;;;2.05;1.60;;;2.90;99.90;;;;;;4966593;28;20031;-69
2024/02/09 04:02:21;;;;;;;1.77;1.35;;;2.90;99.90;;;;;;4967413;28;20149;-69
2024/02/09 04:04:47;;;;;;;2.45;1.40;;;2.90;99.90;;;;;;4963545;28;20035;-69
2024/02/09 04:07:15;;;;;;;4.05;1.80;;;3.00;99.90;;;;;;4967474;28;20030;-68
2024/02/09 04:09:42;;;;;;;1.77;1.40;;;2.90;99.90;;;;;;4966307;28;20031;-69
2024/02/09 04:12:10;;;;;;;1.92;1.48;;;2.80;99.90;;;;;;4967121;28;20672;-68
2024/02/09 04:14:36;;;;;;;1.95;1.42;;;2.80;99.90;;;;;;4967560;28;20434;-69
2024/02/09 04:17:04;;;;;;;1.98;1.48;;;2.90;99.90;;;;;;4967191;28;20042;-69
2024/02/09 04:19:30;;;;;;;1.73;1.40;;;2.90;99.90;;;;;;4966807;28;20138;-69
2024/02/09 04:21:56;;;;;;;2.60;1.70;;;2.80;99.90;;;;;;4967076;28;20507;-69
2024/02/09 04:24:24;;;;;;;3.15;1.83;;;2.90;99.90;;;;;;4967792;28;20034;-69
2024/02/09 04:26:51;;;;;;;2.17;1.40;;;3.00;99.90;;;;;;4965795;28;20026;-69
2024/02/09 04:29:18;;;;;;;1.80;1.60;;;2.90;99.90;;;;;;4966383;28;20054;-69
2024/02/09 04:31:53;;;;;;;2.35;1.35;;;2.90;99.90;;;;;;4966984;28;20034;-69
2024/02/09 04:34:19;;;;;;;2.07;1.67;;;3.00;99.90;;;;;;4966583;28;20039;-69
2024/02/09 04:36:47;;;;;;;2.00;1.67;;;3.00;99.90;;;;;;4966850;28;20030;-69
2024/02/09 04:39:14;;;;;;;1.80;1.50;;;3.00;99.90;;;;;;4966350;28;20053;-69
2024/02/09 04:41:49;;;;;;;3.80;1.50;;;3.10;99.90;;;;;;4966886;28;20474;-69
2024/02/09 04:44:15;;;;;;;1.80;1.45;;;3.10;99.90;;;;;;4966705;28;20038;-69
2024/02/09 04:46:42;;;;;;;2.28;1.60;;;3.10;99.90;;;;;;4966754;28;20045;-69
2024/02/09 04:49:10;;;;;;;2.05;1.60;;;3.10;99.90;;;;;;4967137;28;20034;-69
2024/02/09 04:51:43;;;;;;;3.40;1.85;;;3.10;99.90;;;;;;4965777;28;20510;-69
2024/02/09 04:54:10;;;;;;;1.63;1.17;;;3.20;99.90;;;;;;4966482;28;20022;-69
2024/02/09 04:56:36;;;;;;;1.80;1.48;;;3.10;99.90;;;;;;4966580;28;20041;-69
2024/02/09 04:59:09;;;;;;;1.88;1.67;;;3.20;99.90;;;;;;4966228;28;20077;-69
2024/02/09 05:01:41;;;;;;;1.98;1.75;;;3.20;99.90;;;;;;4965943;28;20499;-69
2024/02/09 05:04:14;;;;;;;3.60;1.70;;;3.10;99.90;;;;;;4966178;28;20035;-69
2024/02/09 05:06:40;;;;;;;3.25;1.60;;;3.10;99.90;;;;;;4966209;28;20462;-69
2024/02/09 05:09:09;;;;;;;2.05;1.60;;;3.00;99.90;;;;;;4965988;28;20083;-69
2024/02/09 05:11:36;;;;;;;1.75;1.30;;;3.00;99.90;;;;;;4965842;28;20039;-69
2024/02/09 05:14:06;;;;;;;2.70;1.90;;;3.00;99.90;;;;;;4965955;28;20924;-69
2024/02/09 05:16:33;;;;;;;2.33;1.48;;;3.10;99.90;;;;;;4965012;28;20059;-69
2024/02/09 05:19:01;;;;;;;2.75;1.42;;;3.10;99.90;;;;;;4965808;28;20641;-66
2024/02/09 05:21:27;;;;;;;2.08;1.45;;;3.10;99.90;;;;;;4964588;28;20065;-66
2024/02/09 05:23:53;;;;;;;2.08;1.63;;;3.10;99.90;;;;;;4965112;28;20817;-66
2024/02/09 05:26:19;;;;;;;2.42;1.60;;;3.10;99.90;;;;;;4965627;28;20061;-69
2024/02/09 05:28:46;;;;;;;2.35;1.40;;;3.10;99.90;;;;;;4965769;28;20490;-69
2024/02/09 05:31:16;;;;;;;2.10;1.27;;;3.00;99.90;;;;;;4964842;28;20058;-70
2024/02/09 05:33:43;;;;;;;2.00;1.52;;;3.00;99.90;;;;;;4965040;28;20061;-69
2024/02/09 05:36:26;;;;;;;2.35;1.77;;;2.90;99.90;;;;;;4965841;28;20353;-69
2024/02/09 05:38:53;;;;;;;1.73;1.50;;;3.00;99.90;;;;;;4964197;28;20031;-69
2024/02/09 05:41:23;;;;;;;1.50;1.40;;;3.00;99.90;;;;;;4963468;28;20111;-69
2024/02/09 05:43:54;;;;;;;1.58;1.48;;;2.90;99.90;;;;;;4965056;28;20113;-69
2024/02/09 05:46:21;;;;;;;3.40;1.65;;;2.80;99.90;;;;;;4965228;28;20034;-69
2024/02/09 05:48:49;;;;;;;2.30;1.70;;;2.90;99.90;;;;;;4964943;28;20514;-69
2024/02/09 05:51:17;;;;;;;2.55;1.50;;;3.00;99.90;;;;;;4965306;28;20066;-69
2024/02/09 05:53:46;;;;;;;2.28;1.40;;;3.00;99.90;;;;;;4964480;28;20030;-69
2024/02/09 05:56:20;;;;;;;4.28;1.67;;;3.00;99.90;;;;;;4964911;28;20042;-69
2024/02/09 05:58:47;;;;;;;2.05;1.58;;;3.10;99.90;;;;;;4964915;28;20023;-69
2024/02/09 06:01:14;;;;;;;2.10;1.90;;;3.00;99.90;;;;;;4964871;28;20027;-70
2024/02/09 06:03:43;;;;;;;2.53;1.65;;;2.90;99.90;;;;;;4965257;28;20030;-69
2024/02/09 06:06:27;;;;;;;4.72;2.20;;;3.00;99.90;;;;;;4964851;28;20042;-69
2024/02/09 06:08:53;;;;;;;2.03;1.77;;;3.00;99.90;;;;;;4963246;28;20563;-69
2024/02/09 06:11:19;;;;;;;4.25;1.65;;;3.00;99.90;;;;;;4964808;28;20031;-69
2024/02/09 06:13:46;;;;;;;1.70;1.30;;;3.00;99.90;;;;;;4965544;28;20482;-69
2024/02/09 06:16:13;;;;;;;2.03;1.65;;;3.00;99.90;;;;;;4964789;28;20086;-70
2024/02/09 06:18:39;;;;;;;3.97;1.58;;;3.10;99.90;;;;;;4965003;28;20029;-70
2024/02/09 06:21:05;;;;;;;2.80;1.58;;;3.20;99.90;;;;;;4965222;28;20603;-70
2024/02/09 06:23:33;;;;;;;1.90;1.55;;;3.30;99.90;;;;;;4965504;28;20027;-70
2024/02/09 06:25:59;;;;;;;2.80;1.73;;;3.20;99.90;;;;;;4964812;28;20034;-70
2024/02/09 06:28:25;;;;;;;1.92;1.52;;;3.30;99.90;;;;;;4964911;28;20062;-70
2024/02/09 06:30:51;;;;;;;1.70;1.42;;;3.30;99.90;;;;;;4964631;28;20039;-70
2024/02/09 06:33:21;;;;;;;3.97;1.67;;;3.30;99.90;;;;;;4964113;28;20111;-69
2024/02/09 06:35:47;;;;;;;1.40;1.30;;;3.30;99.90;;;;;;4964142;28;20042;-70
2024/02/09 06:38:14;;;;;;;3.38;1.70;;;3.20;99.90;;;;;;4964645;28;20031;-69
2024/02/09 06:40:40;;;;;;;3.05;1.95;;;3.30;99.90;;;;;;4965000;28;20037;-70
2024/02/09 06:43:06;;;;;;;2.00;1.70;;;3.40;99.90;;;;;;4963778;28;20808;-70
2024/02/09 06:45:35;;;;;;;2.88;1.95;;;3.30;99.90;;;;;;4963386;28;20034;-70
2024/02/09 06:48:05;;;;;;;4.63;1.58;;;3.30;99.90;;;;;;4964733;28;20494;-69
2024/02/09 06:50:35;;;;;;;2.30;1.83;;;3.20;99.90;;;;;;4964767;28;20405;-70
2024/02/09 06:53:05;;;;;;;2.20;1.83;;;3.20;99.90;;;;;;4964838;28;20112;-69
2024/02/09 06:55:32;;;;;;;2.38;1.35;;;3.20;99.90;;;;;;4963758;28;20039;-69
2024/02/09 06:57:58;;;;;;;2.92;1.63;;;3.40;99.90;;;;;;4964462;28;20035;-70
2024/02/09 07:00:25;;;;;;;2.80;1.67;;;3.40;99.90;;;;;;4963476;28;20041;-70
2024/02/09 07:02:55;;;;;;;1.92;1.65;;;3.30;99.90;;;;;;4962774;28;20050;-70
2024/02/09 07:05:22;;;;;;;1.85;1.48;;;3.20;99.90;;;;;;4964097;28;20039;-70
2024/02/09 07:07:53;;;;;;;4.03;1.67;;;3.30;99.90;;;;;;4961892;28;20038;-70
2024/02/09 07:10:25;;;;;;;1.48;1.13;;;3.10;99.90;;;;;;4962448;28;20345;-70
2024/02/09 07:12:53;;;;;;;3.58;1.98;;;3.20;99.90;;;;;;4962429;28;20034;-70
2024/02/09 07:15:19;;;;;;;4.25;1.73;;;3.20;99.90;;;;;;4963236;28;20038;-69
2024/02/09 07:17:45;;;;;;;3.17;1.58;;;3.20;99.90;;;;;;4963481;28;20370;-70
2024/02/09 07:20:12;;;;;;;2.63;1.35;;;3.20;99.90;;;;;;4964434;28;20042;-70
2024/02/09 07:22:38;;;;;;;1.90;1.45;;;3.20;99.90;;;;;;4964383;28;20058;-69
2024/02/09 07:25:05;;;;;;;2.33;1.60;;;3.20;99.90;;;;;;4962801;28;20034;-70
2024/02/09 07:27:30;;;;;;;1.67;1.42;;;3.10;99.90;;;;;;4963799;28;20118;-70
2024/02/09 07:29:56;;;;;;;3.72;1.55;;;3.00;99.90;;;;;;4960842;28;20067;-69
2024/02/09 07:32:23;;;;;;;6.30;1.25;;;3.10;99.90;;;;;;4963954;28;20038;-70
2024/02/09 07:34:48;;;;;;;1.83;1.17;;;3.10;99.90;;;;;;4963692;28;20101;-69
2024/02/09 07:37:15;;;;;;;1.60;1.25;;;3.20;99.90;;;;;;4964153;28;20035;-69
2024/02/09 07:39:42;;;;;;;1.40;1.20;;;3.20;99.90;;;;;;4964068;28;20026;-70
2024/02/09 07:42:08;;;;;;;2.10;1.35;;;3.20;99.90;;;;;;4964215;28;20419;-69
2024/02/09 07:44:36;;;;;;;1.63;1.35;;;3.40;99.90;;;;;;4964089;28;20049;-69
2024/02/09 07:47:04;;;;;;;2.05;1.50;;;3.50;99.90;;;;;;4964345;28;20092;-70
2024/02/09 07:49:32;;;;;;;1.90;1.35;;;3.40;99.90;;;;;;4962206;28;20114;-70
2024/02/09 07:52:01;;;;;;;2.45;1.50;;;3.30;99.90;;;;;;4963320;28;20042;-70
2024/02/09 07:54:28;;;;;;;2.22;1.50;;;3.40;99.90;;;;;;4962606;28;20049;-69
2024/02/09 07:56:54;;;;;;;3.25;1.67;;;3.50;99.90;;;;;;4966650;28;20098;-69
2024/02/09 07:59:20;;;;;;;1.95;1.50;;;3.50;99.90;;;;;;4967858;28;20031;-70
2024/02/09 08:01:47;;;;;;;3.80;1.70;;;3.50;99.90;;;;;;4936247;28;20498;-71
2024/02/09 08:04:13;;;;;;;3.58;2.03;;;3.50;99.90;;;;;;4967338;28;20035;-70
2024/02/09 08:06:39;;;;;;;1.50;1.20;;;3.50;99.90;;;;;;4966797;28;20035;-70
2024/02/09 08:09:05;;;;;;;2.22;1.50;;;3.60;99.90;;;;;;4966972;28;20034;-69
2024/02/09 08:11:31;;;;;;;2.47;2.13;;;3.70;99.90;;;;;;4967536;28;20033;-69
2024/02/09 08:14:00;;;;;;;2.10;1.63;;;3.90;99.90;;;;;;4967468;28;20034;-70
2024/02/09 08:16:26;;;;;;;1.70;1.20;;;4.00;99.90;;;;;;4966748;28;20042;-71
2024/02/09 08:18:53;;;;;;;2.38;1.52;;;4.00;99.90;;;;;;4963639;28;20038;-72
2024/02/09 08:21:20;;;;;;;2.88;1.58;;;3.90;99.90;;;;;;4965954;28;20031;-73
2024/02/09 08:23:46;;;;;;;1.52;1.10;;;4.00;99.90;;;;;;4966437;28;20052;-70
2024/02/09 08:26:12;;;;;;;2.08;1.13;;;4.00;99.90;;;;;;4964118;28;20058;-68
2024/02/09 08:28:43;;;;;;;1.95;1.45;;;4.00;99.90;;;;;;4965115;28;20101;-68
2024/02/09 08:31:13;;;;;;;1.80;1.45;;;3.90;99.90;;;;;;4965337;28;20034;-68
2024/02/09 08:33:39;;;;;;;1.55;1.40;;;4.00;99.90;;;;;;4964888;28;20034;-68
2024/02/09 08:36:06;;;;;;;1.38;1.13;;;3.90;99.90;;;;;;4967005;28;20038;-67
2024/02/09 08:38:32;;;;;;;1.30;1.20;;;3.90;99.90;;;;;;4978668;28;20050;-67
2024/02/09 08:40:58;;;;;;;1.25;0.98;;;4.00;99.90;;;;;;4987762;28;20092;-67
2024/02/09 08:43:24;;;;;;;1.77;1.23;;;3.90;99.90;;;;;;4968246;28;20026;-67
2024/02/09 08:45:50;;;;;;;1.20;1.13;;;3.80;99.90;;;;;;4984787;28;20030;-69
2024/02/09 08:48:16;;;;;;;1.92;1.38;;;3.80;99.90;;;;;;4985190;28;20030;-68
2024/02/09 08:50:44;;;;;;;2.35;1.30;;;3.80;99.90;;;;;;4984814;28;20070;-69
2024/02/09 08:53:10;;;;;;;2.05;1.30;;;3.90;99.90;;;;;;4985289;28;20058;-68
2024/02/09 08:55:36;;;;;;;2.95;1.40;;;3.90;99.90;;;;;;4960534;28;20054;-69
2024/02/09 08:58:07;;;;;;;1.45;1.23;;;3.90;99.90;;;;;;4974154;28;20042;-68
2024/02/09 09:00:33;;;;;;;1.25;1.15;;;3.90;99.90;;;;;;4971397;28;20038;-69
2024/02/09 09:03:00;;;;;;;3.70;1.60;;;3.90;99.90;;;;;;4975628;28;20126;-69
2024/02/09 09:05:28;;;;;;;1.38;1.27;;;3.90;99.90;;;;;;4976163;28;20034;-71
2024/02/09 09:07:54;;;;;;;2.15;1.50;;;3.90;99.90;;;;;;4972112;28;20061;-71
2024/02/09 09:10:20;;;;;;;4.32;1.80;;;3.90;99.90;;;;;;4970977;28;20037;-71
2024/02/09 09:12:46;;;;;;;5.55;1.80;;;4.10;99.90;;;;;;4971526;28;20502;-70
2024/02/09 09:15:13;;;;;;;2.30;1.42;;;4.10;99.90;;;;;;4970219;28;20038;-71
2024/02/09 09:17:40;;;;;;;1.90;1.23;;;4.10;99.90;;;;;;4976127;28;20097;-72
2024/02/09 09:20:10;;;;;;;2.00;1.50;;;4.10;99.90;;;;;;4971745;28;20093;-72
2024/02/09 09:22:39;;;;;;;1.55;1.27;;;4.40;99.90;;;;;;4972717;28;20652;-71
2024/02/09 09:25:07;;;;;;;2.00;1.45;;;4.40;99.90;;;;;;4971634;28;20030;-69
2024/02/09 09:27:34;;;;;;;2.03;1.58;;;4.40;99.90;;;;;;4971554;28;20490;-68
2024/02/09 09:30:02;;;;;;;3.33;1.30;;;4.50;99.90;;;;;;4972911;28;20026;-69
2024/02/09 09:32:27;;;;;;;1.45;1.30;;;4.70;99.90;;;;;;4971891;28;20113;-69
2024/02/09 09:34:53;;;;;;;2.72;1.60;;;4.70;99.90;;;;;;4971180;28;20121;-68
2024/02/09 09:37:19;;;;;;;1.83;1.40;;;4.60;99.90;;;;;;4975861;28;20753;-67
2024/02/09 09:39:45;;;;;;;1.98;1.30;;;4.70;99.90;;;;;;4972429;28;20172;-68
2024/02/09 09:42:11;;;;;;;1.27;1.17;;;4.80;99.90;;;;;;4974688;28;20030;-68
2024/02/09 09:44:37;;;;;;;3.00;1.33;;;4.90;99.90;;;;;;4971137;28;20097;-66
2024/02/09 09:47:04;;;;;;;3.75;1.52;;;4.80;99.90;;;;;;4975309;28;20049;-68
2024/02/09 09:49:31;;;;;;;1.90;1.45;;;4.70;99.90;;;;;;4969185;28;20782;-67
2024/02/09 09:52:00;;;;;;;2.10;1.27;;;4.70;99.90;;;;;;4973648;28;20042;-67
2024/02/09 09:54:29;;;;;;;3.35;1.15;;;4.70;99.90;;;;;;4971129;28;20035;-66
2024/02/09 09:56:57;;;;;;;1.25;1.15;;;4.90;99.90;;;;;;4974498;28;20493;-67
2024/02/09 10:03:10;;;;;;;2.05;1.42;;;5.00;99.90;;;;;;4971500;28;20057;-67
2024/02/09 10:05:36;;;;;;;5.53;1.60;;;5.00;99.90;;;;;;4971099;28;20038;-65
2024/02/09 10:08:02;;;;;;;1.65;1.30;;;5.00;99.90;;;;;;4972383;28;20042;-68
2024/02/09 10:10:29;;;;;;;2.10;1.70;;;5.10;99.90;;;;;;4951121;28;20034;-67
2024/02/09 10:13:11;;;;;;;1.52;1.42;;;5.10;99.90;;;;;;4956659;28;20047;-72
2024/02/09 10:15:41;;;;;;;3.08;1.52;;;5.00;99.90;;;;;;4961940;28;20066;-71
2024/02/09 10:18:10;;;;;;;1.55;1.30;;;4.90;99.90;;;;;;4965990;28;20034;-71
2024/02/09 10:20:42;;;;;;;3.22;1.58;;;5.10;99.90;;;;;;4970496;28;20580;-71
2024/02/09 10:23:08;;;;;;;2.20;1.75;;;5.20;99.90;;;;;;4966800;28;20022;-72
2024/02/09 10:25:35;;;;;;;1.63;1.40;;;5.10;99.90;;;;;;4970560;28;20038;-71
2024/02/09 10:28:01;;;;;;;2.47;1.58;;;5.10;99.90;;;;;;4969293;28;20113;-71
2024/02/09 10:30:29;;;;;;;2.45;1.88;;;5.20;99.90;;;;;;4972569;28;20764;-71
2024/02/09 10:32:58;;;;;;;1.70;1.60;;;5.30;99.90;;;;;;4970843;28;20652;-70
2024/02/09 10:35:23;;;;;;;2.53;1.60;;;5.30;99.90;;;;;;4967295;28;20031;-71
2024/02/09 10:37:50;;;;;;;4.13;2.25;;;5.30;99.90;;;;;;4970434;28;20583;-72
2024/02/09 10:40:18;;;;;;;2.42;1.83;;;5.40;99.90;;;;;;4970788;28;20038;-71
2024/02/09 10:42:47;;;;;;;2.08;1.88;;;5.50;99.90;;;;;;4962555;28;20053;-71
2024/02/09 10:45:13;;;;;;;2.33;1.90;;;5.60;99.90;;;;;;4968821;28;20395;-71
2024/02/09 10:47:40;;;;;;;2.58;2.10;;;5.70;99.90;;;;;;4972327;28;20030;-73
2024/02/09 10:50:07;;;;;;;2.38;1.60;;;5.60;99.90;;;;;;4971618;28;20038;-73
2024/02/09 10:52:37;;;;;;;2.80;1.90;;;5.60;99.90;;;;;;4971190;28;20035;-74
2024/02/09 10:55:08;;;;;;;2.80;2.20;;;5.70;99.90;;;;;;4970766;28;20042;-69
2024/02/09 10:57:35;;;;;;;3.03;2.35;;;5.70;99.90;;;;;;4963788;28;20027;-75
2024/02/09 11:00:03;;;;;;;2.88;2.40;;;5.70;99.90;;;;;;4970088;28;20027;-70
2024/02/09 11:02:35;;;;;;;3.05;1.90;;;5.80;99.90;;;;;;4962923;28;20027;-69
2024/02/09 11:05:03;;;;;;;5.18;2.88;;;5.90;99.90;;;;;;4971042;28;20081;-70
2024/02/09 11:07:29;;;;;;;4.35;2.30;;;6.00;99.90;;;;;;4969141;28;20066;-70
2024/02/09 11:09:56;;;;;;;3.20;2.47;;;6.10;99.90;;;;;;4969210;28;20045;-75
2024/02/09 11:12:22;;;;;;;3.50;2.25;;;6.30;99.90;;;;;;4942249;28;20066;-70
2024/02/09 11:14:47;;;;;;;2.30;2.03;;;6.30;99.90;;;;;;4981175;28;20053;-70
2024/02/09 11:17:18;;;;;;;2.17;1.95;;;6.50;99.90;;;;;;4982292;28;20037;-65
2024/02/09 11:19:44;;;;;;;2.83;2.28;;;6.50;99.90;;;;;;4982086;28;20160;-65
2024/02/09 11:22:11;;;;;;;4.90;2.63;;;6.60;99.90;;;;;;4983984;28;20825;-65
2024/02/09 11:24:38;;;;;;;2.80;2.40;;;6.70;99.90;;;;;;4983786;28;20093;-65
2024/02/09 11:27:06;;;;;;;4.20;2.20;;;6.80;99.90;;;;;;4985957;28;20061;-68
2024/02/09 11:29:33;;;;;;;2.40;2.20;;;6.90;99.90;;;;;;4983701;28;20109;-70
2024/02/09 11:32:05;;;;;;;3.90;2.60;;;7.00;99.90;;;;;;4985756;28;20117;-65
2024/02/09 11:34:34;;;;;;;3.13;2.15;;;7.10;99.90;;;;;;4977785;28;20097;-67
2024/02/09 11:37:00;;;;;;;2.78;2.33;;;7.20;99.90;;;;;;4987418;28;20046;-70
2024/02/09 11:39:27;;;;;;;3.85;2.15;;;7.30;99.90;;;;;;4985726;28;20053;-66
2024/02/09 11:41:53;;;;;;;4.78;2.30;;;7.30;99.90;;;;;;4984210;28;20397;-68
2024/02/09 11:44:21;;;;;;;7.25;2.42;;;7.30;99.90;;;;;;4986439;28;20109;-74
2024/02/09 11:46:48;;;;;;;3.85;2.47;;;7.30;99.90;;;;;;4984164;28;20405;-67
2024/02/09 11:49:14;;;;;;;4.15;2.20;;;7.50;99.90;;;;;;4986952;28;20041;-73
2024/02/09 11:51:41;;;;;;;5.05;2.60;;;7.40;99.90;;;;;;4986285;28;20770;-75
2024/02/09 11:54:10;;;;;;;3.63;2.38;;;7.50;99.90;;;;;;4986611;28;20113;-75
2024/02/09 11:56:38;;;;;;;3.28;2.53;;;7.60;99.90;;;;;;4986805;28;20030;-75
2024/02/09 11:59:04;;;;;;;3.60;2.30;;;7.50;99.90;;;;;;4986969;28;20089;-73
2024/02/09 12:01:31;;;;;;;3.78;2.63;;;7.60;99.90;;;;;;4986421;28;20038;-74
2024/02/09 12:03:58;;;;;;;4.97;3.30;;;7.60;99.90;;;;;;4986927;28;20129;-73
2024/02/09 12:06:24;;;;;;;4.57;2.85;;;7.70;99.90;;;;;;4987066;28;20037;-71
2024/02/09 12:08:51;;;;;;;5.10;2.58;;;7.70;99.90;;;;;;4988572;28;20065;-73
2024/02/09 12:11:20;;;;;;;6.05;3.00;;;7.80;99.90;;;;;;4985379;28;20042;-68
2024/02/09 12:13:47;;;;;;;3.03;2.63;;;7.80;99.90;;;;;;4987129;28;20393;-76
2024/02/09 12:16:19;;;;;;;4.43;3.22;;;7.80;99.90;;;;;;4985699;28;20030;-65
2024/02/09 12:18:53;;;;;;;3.35;2.63;;;7.80;99.90;;;;;;4985806;28;20019;-66
2024/02/09 12:21:19;;;;;;;5.47;2.85;;;7.90;99.90;;;;;;4984463;28;20030;-67
2024/02/09 12:23:46;;;;;;;3.13;2.70;;;7.80;99.90;;;;;;4982994;28;20492;-70
2024/02/09 12:26:14;;;;;;;4.93;2.83;;;7.70;99.90;;;;;;4983384;28;20038;-72
2024/02/09 12:28:40;;;;;;;6.78;2.90;;;7.70;99.90;;;;;;4983839;28;20026;-70
2024/02/09 12:31:11;;;;;;;4.32;2.70;;;7.60;99.90;;;;;;4983534;28;20030;-71
2024/02/09 12:33:44;;;;;;;4.85;2.63;;;7.50;99.90;;;;;;4982678;28;20126;-71
2024/02/09 12:36:12;;;;;;;4.35;3.15;;;7.50;99.90;;;;;;4981932;28;20034;-67
2024/02/09 12:38:41;;;;;;;4.10;2.97;;;7.60;99.90;;;;;;4984719;28;20344;-67
2024/02/09 12:41:07;;;;;;;5.65;3.08;;;7.50;99.90;;;;;;4983714;28;20049;-72
2024/02/09 12:43:34;;;;;;;6.75;3.45;;;7.50;99.90;;;;;;4985286;28;20813;-72
2024/02/09 12:46:00;;;;;;;5.88;3.25;;;7.60;99.90;;;;;;4985129;28;20030;-72
2024/02/09 12:48:28;;;;;;;5.50;3.20;;;7.60;99.90;;;;;;4984759;28;20097;-72
2024/02/09 12:50:57;;;;;;;5.45;4.00;;;7.70;99.90;;;;;;4984458;28;20038;-71
2024/02/09 12:53:24;;;;;;;4.88;3.13;;;7.70;99.90;;;;;;4984882;28;20044;-71
2024/02/09 12:55:51;;;;;;;4.82;3.60;;;7.70;99.90;;;;;;4981540;28;20506;-71
2024/02/09 12:58:19;;;;;;;6.82;3.25;;;7.70;99.90;;;;;;4983940;28;20031;-71
2024/02/09 13:00:46;;;;;;;5.82;3.63;;;7.80;99.90;;;;;;4982729;28;20788;-67
2024/02/09 13:03:12;;;;;;;5.78;4.35;;;7.80;99.90;;;;;;4983575;28;20052;-71
2024/02/09 13:05:39;;;;;;;5.65;3.65;;;7.80;99.90;;;;;;4984669;28;20181;-72
2024/02/09 13:08:05;;;;;;;5.40;3.22;;;7.80;99.90;;;;;;4982395;28;20065;-71
2024/02/09 13:10:34;;;;;;;6.15;4.68;;;7.90;99.90;;;;;;4983758;28;20034;-72
2024/02/09 13:13:08;;;;;;;4.95;3.60;;;7.90;99.90;;;;;;4983942;28;20026;-71
2024/02/09 13:15:35;;;;;;;5.72;3.67;;;8.00;99.90;;;;;;4984159;28;20065;-72
2024/02/09 13:18:08;;;;;;;4.85;3.33;;;8.00;99.90;;;;;;4984202;28;20030;-72
2024/02/09 13:20:37;;;;;;;5.72;4.00;;;8.00;99.90;;;;;;4983560;28;20114;-67
2024/02/09 13:23:04;;;;;;;5.40;3.65;;;8.00;99.90;;;;;;4983800;28;20026;-67
2024/02/09 13:25:40;;;;;;;9.30;4.25;;;8.10;99.90;;;;;;4983794;28;20038;-72
2024/02/09 13:28:07;;;;;;;4.85;3.80;;;8.10;99.90;;;;;;4983195;28;20048;-71
2024/02/09 13:30:34;;;;;;;6.18;4.45;;;8.20;99.90;;;;;;4984023;28;20401;-71
2024/02/09 13:33:00;;;;;;;6.00;4.40;;;8.20;99.90;;;;;;4981713;28;20089;-67
2024/02/09 13:35:26;;;;;;;6.55;4.47;;;8.10;99.90;;;;;;4983351;28;20033;-67
2024/02/09 13:37:53;;;;;;;6.80;4.78;;;8.20;99.90;;;;;;4982984;28;20116;-67
2024/02/09 13:40:19;;;;;;;6.15;4.50;;;8.20;99.90;;;;;;4981349;28;20038;-71
2024/02/09 13:42:48;;;;;;;9.45;4.95;;;8.10;99.90;;;;;;4983083;28;20502;-72
2024/02/09 13:45:21;;;;;;;6.00;3.88;;;8.10;99.90;;;;;;4982844;28;20919;-67
2024/02/09 13:47:52;;;;;;;9.20;4.38;;;8.20;99.90;;;;;;4983104;28;20233;-72
2024/02/09 13:50:22;;;;;;;5.82;4.18;;;8.10;99.90;;;;;;4982549;28;20038;-71
2024/02/09 13:52:47;;;;;;;5.95;3.95;;;8.20;99.90;;;;;;4981425;28;20414;-72
2024/02/09 13:55:13;;;;;;;7.32;4.35;;;8.30;99.90;;;;;;4984202;28;20034;-71
2024/02/09 13:57:48;;;;;;;10.82;5.50;;;8.30;99.90;;;;;;4982696;28;20030;-72
2024/02/09 14:00:18;;;;;;;8.70;4.45;;;8.30;99.90;;;;;;4982721;28;20060;-71
2024/02/09 14:02:45;;;;;;;7.53;4.68;;;8.30;99.90;;;;;;4982374;28;20506;-71
2024/02/09 14:05:11;;;;;;;6.70;4.50;;;8.30;99.90;;;;;;4982672;28;20121;-72
2024/02/09 14:07:41;;;;;;;7.13;4.90;;;8.10;99.90;;;;;;4982950;28;20041;-71
2024/02/09 14:10:07;;;;;;;9.18;4.45;;;8.00;99.90;;;;;;4982508;28;20058;-72
2024/02/09 14:12:33;;;;;;;9.68;4.57;;;8.00;99.90;;;;;;4982984;28;20049;-72
2024/02/09 14:15:01;;;;;;;8.88;5.28;;;7.90;99.90;;;;;;4983235;28;20686;-67
2024/02/09 14:17:28;;;;;;;8.10;4.40;;;7.80;99.90;;;;;;4982858;28;20550;-67
2024/02/09 14:19:54;;;;;;;5.45;4.20;;;7.90;99.90;;;;;;4982937;28;20133;-67
2024/02/09 14:22:20;;;;;;;9.02;5.20;;;8.00;99.90;;;;;;4981033;28;20106;-71
2024/02/09 14:24:46;;;;;;;6.30;4.78;;;7.90;99.90;;;;;;4983467;28;20145;-72
2024/02/09 14:27:14;;;;;;;8.20;4.80;;;7.90;99.90;;;;;;4982608;28;20041;-72
2024/02/09 14:29:40;;;;;;;6.50;4.53;;;7.90;99.90;;;;;;4982620;28;20112;-72
2024/02/09 14:32:08;;;;;;;8.68;4.82;;;7.90;99.90;;;;;;4982916;28;20041;-71
2024/02/09 14:34:34;;;;;;;5.95;4.82;;;8.00;99.90;;;;;;4983242;28;20030;-72
2024/02/09 14:37:00;;;;;;;9.27;4.82;;;8.20;99.90;;;;;;4981871;28;20085;-68
2024/02/09 14:39:25;;;;;;;10.38;5.50;;;8.20;99.90;;;;;;4980603;28;20030;-68
2024/02/09 14:41:51;;;;;;;10.93;5.47;;;8.20;99.90;;;;;;4981947;28;20501;-68
2024/02/09 14:44:17;;;;;;;8.82;5.68;;;8.20;99.90;;;;;;4982092;28;20141;-68
2024/02/09 14:46:45;;;;;;;7.85;5.53;;;8.40;99.90;;;;;;4983058;28;20042;-71
2024/02/09 14:49:12;;;;;;;8.02;5.00;;;8.40;99.90;;;;;;4982673;28;20027;-72